createdAt,value
2019-04-04T00:03:36.974Z,98694.05
2019-04-04T00:07:41.269Z,98687.22
2019-04-04T00:11:45.544Z,98687.22
2019-04-04T00:15:49.954Z,98688.17
2019-04-04T00:19:54.245Z,98674.64
2019-04-04T00:23:58.471Z,98674.64
2019-04-04T00:28:02.730Z,98670.27
2019-04-04T00:32:07.003Z,98670.27
2019-04-04T00:36:11.252Z,98662.84
2019-04-04T00:40:15.546Z,98661.56
2019-04-04T00:44:21.022Z,98654.29
2019-04-04T00:48:25.826Z,98653.89
2019-04-04T00:52:30.217Z,98656.10
2019-04-04T00:56:34.499Z,98656.10
2019-04-04T01:00:38.903Z,98644.72
2019-04-04T01:04:43.134Z,98645.64
2019-04-04T01:08:47.448Z,98643.13
2019-04-04T01:12:52.129Z,98639.28
2019-04-04T01:16:57.456Z,98636.31
2019-04-04T01:21:01.727Z,98634.74
2019-04-04T01:25:07.231Z,98623.91
2019-04-04T01:29:11.637Z,98638.56
2019-04-04T01:33:15.947Z,98633.47
2019-04-04T01:37:20.362Z,98633.55
2019-04-04T01:41:24.584Z,98632.77
2019-04-04T01:45:28.772Z,98631.95
2019-04-04T01:49:33.024Z,98628.53
2019-04-04T01:53:37.256Z,98625.06
2019-04-04T01:57:41.443Z,98635.64
2019-04-04T02:01:46.851Z,98633.48
2019-04-04T02:05:51.683Z,98640.58
2019-04-04T02:09:56.032Z,98645.51
2019-04-04T02:14:00.258Z,98654.33
2019-04-04T02:18:04.503Z,98647.41
2019-04-04T02:22:08.816Z,98649.23
2019-04-04T02:26:13.541Z,98642.22
2019-04-04T02:30:17.760Z,98638.31
2019-04-04T02:34:22.029Z,98634.47
2019-04-04T02:38:28.040Z,98635.03
2019-04-04T02:42:32.668Z,98640.78
2019-04-04T02:46:36.894Z,98629.86
2019-04-04T02:50:41.225Z,98633.89
2019-04-04T02:54:45.462Z,98629.07
2019-04-04T02:58:50.687Z,98630.03
2019-04-04T03:02:54.931Z,98630.03
2019-04-04T03:06:59.165Z,98632.21
2019-04-04T03:11:03.479Z,98624.37
2019-04-04T03:15:09.316Z,98623.93
2019-04-04T03:19:13.928Z,98620.05
2019-04-04T03:23:18.139Z,98625.34
2019-04-04T03:27:25.797Z,98619.28
2019-04-04T03:31:36.435Z,98624.17
2019-04-04T03:35:34.556Z,98624.67
2019-04-04T03:39:38.786Z,98623.86
2019-04-04T03:43:42.992Z,98624.37
2019-04-04T03:47:47.264Z,98623.97
2019-04-04T03:51:51.465Z,98629.22
2019-04-04T03:56:00.179Z,98631.47
2019-04-04T04:00:05.889Z,98629.36
2019-04-04T04:04:07.634Z,98635.96
2019-04-04T04:08:11.921Z,98638.16
2019-04-04T04:12:16.123Z,98640.89
2019-04-04T04:16:20.351Z,98642.18
2019-04-04T04:20:24.610Z,98639.97
2019-04-04T04:24:30.267Z,98640.41
2019-04-04T04:28:34.929Z,98639.95
2019-04-04T04:32:39.168Z,98646.95
2019-04-04T04:36:47.696Z,98638.03
2019-04-04T04:40:50.542Z,98632.79
2019-04-04T04:44:55.474Z,98632.02
2019-04-04T04:49:00.675Z,98624.16
2019-04-04T04:53:05.643Z,98621.69
2019-04-04T04:57:17.511Z,98616.98
2019-04-04T05:01:16.235Z,98629.84
2019-04-04T05:05:21.961Z,98629.87
2019-04-04T05:09:26.348Z,98638.70
2019-04-04T05:13:30.569Z,98643.92
2019-04-04T05:17:34.799Z,98639.48
2019-04-04T05:21:39.040Z,98644.73
2019-04-04T05:25:53.338Z,98642.52
2019-04-04T05:29:49.358Z,98642.50
2019-04-04T05:33:53.583Z,98648.22
2019-04-04T05:37:58.029Z,98651.70
2019-04-04T05:42:02.439Z,98650.39
2019-04-04T05:46:07.628Z,98656.02
2019-04-04T05:50:12.155Z,98661.24
2019-04-04T05:54:16.851Z,98662.06
2019-04-04T05:58:22.605Z,98662.94
2019-04-04T06:02:27.063Z,98655.86
2019-04-04T06:06:33.400Z,98658.80
2019-04-04T06:10:37.474Z,98672.64
2019-04-04T06:14:41.690Z,98664.92
2019-04-04T06:18:49.007Z,98666.51
2019-04-04T06:22:52.596Z,98658.81
2019-04-04T06:26:56.881Z,98651.59
2019-04-04T06:31:01.411Z,98654.38
2019-04-04T06:35:05.929Z,98660.30
2019-04-04T06:39:10.173Z,98656.99
2019-04-04T06:43:14.490Z,98639.69
2019-04-04T06:47:18.752Z,98651.58
2019-04-04T06:51:22.950Z,98650.45
2019-04-04T06:55:28.758Z,98653.98
2019-04-04T06:59:33.611Z,98643.68
2019-04-04T07:03:38.292Z,98643.68
2019-04-04T07:07:43.847Z,98636.22
2019-04-04T07:11:48.265Z,98636.22
2019-04-04T07:16:06.360Z,98630.13
2019-04-04T07:19:58.518Z,98632.62
2019-04-04T07:24:02.773Z,98632.62
2019-04-04T07:28:07.114Z,98632.24
2019-04-04T07:32:11.473Z,98626.22
2019-04-04T07:36:15.657Z,98626.27
2019-04-04T07:40:20.433Z,98619.36
2019-04-04T07:44:24.678Z,98612.70
2019-04-04T07:48:29.300Z,98600.88
2019-04-04T07:52:33.705Z,98597.34
2019-04-04T07:56:38.230Z,98600.34
2019-04-04T08:00:42.602Z,98599.52
2019-04-04T08:04:47.319Z,98598.22
2019-04-04T08:08:51.969Z,98592.08
2019-04-04T08:12:56.539Z,98598.70
2019-04-04T08:17:01.506Z,98594.70
2019-04-04T08:21:05.967Z,98591.37
2019-04-04T08:25:10.642Z,98591.66
2019-04-04T08:29:14.854Z,98578.39
2019-04-04T08:33:19.111Z,98589.80
2019-04-04T08:37:23.783Z,98584.91
2019-04-04T08:41:28.040Z,98590.45
2019-04-04T08:45:32.259Z,98577.48
2019-04-04T08:49:36.497Z,98583.87
2019-04-04T08:53:40.797Z,98570.31
2019-04-04T08:57:45.031Z,98580.94
2019-04-04T09:01:49.736Z,98579.11
2019-04-04T09:05:54.207Z,98566.27
2019-04-04T09:09:58.617Z,98563.55
2019-04-04T09:14:03.089Z,98561.59
2019-04-04T09:18:07.261Z,98536.25
2019-04-04T09:22:11.728Z,98540.71
2019-04-04T09:26:16.160Z,98538.11
2019-04-04T09:30:21.135Z,98534.30
2019-04-04T09:34:25.430Z,98547.63
2019-04-04T09:38:29.720Z,98534.81
2019-04-04T09:42:33.946Z,98536.38
2019-04-04T09:46:38.161Z,98528.67
2019-04-04T09:50:42.738Z,98516.31
2019-04-04T09:54:47.053Z,98513.31
2019-04-04T09:58:51.325Z,98509.14
2019-04-04T10:02:55.693Z,98504.92
2019-04-04T10:06:59.931Z,98487.00
2019-04-04T10:11:04.141Z,98497.19
2019-04-04T10:15:08.965Z,98499.63
2019-04-04T10:19:13.214Z,98494.36
2019-04-04T10:23:17.392Z,98510.36
2019-04-04T10:27:21.647Z,98496.72
2019-04-04T10:31:26.195Z,98493.64
2019-04-04T10:35:30.419Z,98504.71
2019-04-04T10:39:34.744Z,98509.11
2019-04-04T10:43:38.956Z,98522.74
2019-04-04T10:47:43.135Z,98513.01
2019-04-04T10:51:47.541Z,98507.97
2019-04-04T10:55:51.824Z,98508.77
2019-04-04T10:59:56.373Z,98503.56
2019-04-04T11:04:01.699Z,98492.16
2019-04-04T11:08:05.882Z,98490.96
2019-04-04T11:12:10.500Z,98495.92
2019-04-04T11:16:14.783Z,98490.03
2019-04-04T11:20:19.080Z,98496.06
2019-04-04T11:24:23.310Z,98506.25
2019-04-04T11:28:27.584Z,98499.58
2019-04-04T11:32:31.835Z,98495.42
2019-04-04T11:36:36.085Z,98493.96
2019-04-04T11:40:40.305Z,98497.53
2019-04-04T11:44:44.538Z,98486.59
2019-04-04T11:48:48.968Z,98475.30
2019-04-04T11:52:53.481Z,98472.78
2019-04-04T11:56:57.729Z,98460.16
2019-04-04T12:01:04.482Z,98465.13
2019-04-04T12:05:09.016Z,98466.48
2019-04-04T12:09:13.219Z,98451.25
2019-04-04T12:13:17.461Z,98453.39
2019-04-04T12:17:21.706Z,98440.25
2019-04-04T12:21:26.006Z,98441.97
2019-04-04T12:25:30.195Z,98432.81
2019-04-04T12:29:34.557Z,98424.48
2019-04-04T12:33:38.783Z,98428.20
2019-04-04T12:37:43.013Z,98418.70
2019-04-04T12:41:47.246Z,98419.27
2019-04-04T12:45:51.463Z,98419.27
2019-04-04T12:49:56.551Z,98393.59
2019-04-04T12:54:01.255Z,98395.61
2019-04-04T12:58:05.868Z,98390.23
2019-04-04T13:02:10.068Z,98381.61
2019-04-04T13:06:14.302Z,98386.50
2019-04-04T13:10:18.929Z,98394.50
2019-04-04T13:14:23.140Z,98390.84
2019-04-04T13:18:27.326Z,98391.57
2019-04-04T13:22:31.554Z,98400.58
2019-04-04T13:26:35.839Z,98388.04
2019-04-04T13:30:40.137Z,98393.37
2019-04-04T13:34:44.611Z,98374.26
2019-04-04T13:38:48.833Z,98367.34
2019-04-04T13:42:53.549Z,98369.66
2019-04-04T13:46:57.926Z,98373.81
2019-04-04T13:51:02.202Z,98359.63
2019-04-04T13:55:06.841Z,98347.87
2019-04-04T13:59:11.135Z,98353.20
2019-04-04T14:03:15.354Z,98345.83
2019-04-04T14:07:19.522Z,98340.55
2019-04-04T14:11:23.729Z,98339.05
2019-04-04T14:15:29.202Z,98330.90
2019-04-04T14:19:33.457Z,98334.55
2019-04-04T14:23:37.619Z,98337.74
2019-04-04T14:27:41.922Z,98334.99
2019-04-04T14:31:46.131Z,98348.89
2019-04-04T14:35:50.356Z,98353.53
2019-04-04T14:39:54.596Z,98364.34
2019-04-04T14:44:00.731Z,98351.81
2019-04-04T14:48:05.143Z,98347.17
2019-04-04T14:52:09.687Z,98356.67
2019-04-04T14:56:13.924Z,98351.70
2019-04-04T15:00:19.005Z,98352.66
2019-04-04T15:04:23.224Z,98356.83
2019-04-04T15:08:27.431Z,98363.74
2019-04-04T15:12:31.609Z,98350.84
2019-04-04T15:16:35.867Z,98343.92
2019-04-04T15:20:40.110Z,98350.30
2019-04-04T15:24:44.326Z,98365.00
2019-04-04T15:28:48.554Z,98371.37
2019-04-04T15:32:52.727Z,98365.36
2019-04-04T15:36:57.331Z,98365.85
2019-04-04T15:41:01.539Z,98377.97
2019-04-04T15:45:06.114Z,98362.31
2019-04-04T15:49:10.344Z,98362.06
2019-04-04T15:53:14.680Z,98358.70
2019-04-04T15:57:18.949Z,98359.33
2019-04-04T16:01:23.114Z,98362.47
2019-04-04T16:05:27.313Z,98372.80
2019-04-04T16:09:31.532Z,98370.84
2019-04-04T16:13:35.755Z,98383.38
2019-04-04T16:17:39.987Z,98363.33
2019-04-04T16:21:44.177Z,98361.30
2019-04-04T16:25:48.816Z,98371.17
2019-04-04T16:29:53.100Z,98375.47
2019-04-04T16:33:57.320Z,98374.20
2019-04-04T16:38:02.058Z,98369.91
2019-04-04T16:42:06.348Z,98361.52
2019-04-04T16:46:10.864Z,98370.69
2019-04-04T16:50:15.674Z,98371.02
2019-04-04T16:54:19.907Z,98370.68
2019-04-04T16:58:24.121Z,98365.91
2019-04-04T17:02:28.347Z,98370.67
2019-04-04T17:06:32.534Z,98373.95
2019-04-04T17:10:36.960Z,98370.73
2019-04-04T17:14:41.170Z,98361.47
2019-04-04T17:18:45.378Z,98365.30
2019-04-04T17:22:49.752Z,98361.56
2019-04-04T17:26:54.093Z,98368.76
2019-04-04T17:30:58.807Z,98374.15
2019-04-04T17:35:03.155Z,98373.98
2019-04-04T17:39:08.854Z,98372.42
2019-04-04T17:43:13.064Z,98372.86
2019-04-04T17:47:18.092Z,98367.64
2019-04-04T17:51:22.689Z,98370.98
2019-04-04T17:55:27.468Z,98377.91
2019-04-04T17:59:31.778Z,98384.39
2019-04-04T18:03:36.292Z,98386.33
2019-04-04T18:07:40.635Z,98396.39
2019-04-04T18:11:44.817Z,98404.84
2019-04-04T18:15:49.063Z,98405.42
2019-04-04T18:19:53.878Z,98409.50
2019-04-04T18:23:58.145Z,98412.73
2019-04-04T18:28:02.350Z,98407.84
2019-04-04T18:32:07.096Z,98412.45
2019-04-04T18:36:11.624Z,98420.11
2019-04-04T18:40:16.676Z,98422.11
2019-04-04T18:44:20.930Z,98424.16
2019-04-04T18:48:25.279Z,98431.85
2019-04-04T18:52:29.635Z,98438.24
2019-04-04T18:56:33.882Z,98444.76
2019-04-04T19:00:38.117Z,98455.45
2019-04-04T19:04:42.376Z,98456.02
2019-04-04T19:08:46.684Z,98457.47
2019-04-04T19:12:50.919Z,98461.08
2019-04-04T19:16:55.162Z,98460.66
2019-04-04T19:20:59.382Z,98467.05
2019-04-04T19:25:04.214Z,98461.06
2019-04-04T19:29:08.743Z,98458.84
2019-04-04T19:33:13.351Z,98462.39
2019-04-04T19:37:17.873Z,98457.20
2019-04-04T19:41:22.113Z,98458.52
2019-04-04T19:45:26.647Z,98450.55
2019-04-04T19:49:30.869Z,98458.34
2019-04-04T19:53:35.113Z,98456.78
2019-04-04T19:57:39.362Z,98459.77
2019-04-04T20:01:43.580Z,98466.95
2019-04-04T20:05:47.829Z,98467.74
2019-04-04T20:09:52.060Z,98476.56
2019-04-04T20:13:56.341Z,98475.23
2019-04-04T20:18:01.057Z,98477.89
2019-04-04T20:22:05.291Z,98480.28
2019-04-04T20:26:09.512Z,98484.80
2019-04-04T20:30:15.172Z,98490.43
2019-04-04T20:34:21.281Z,98496.16
2019-04-04T20:38:25.621Z,98502.27
2019-04-04T20:42:29.861Z,98502.86
2019-04-04T20:46:34.392Z,98499.52
2019-04-04T20:50:38.625Z,98511.59
2019-04-04T20:54:42.804Z,98510.38
2019-04-04T20:58:47.031Z,98514.63
2019-04-04T21:02:51.251Z,98515.59
2019-04-04T21:06:55.503Z,98518.45
2019-04-04T21:10:59.666Z,98518.20
2019-04-04T21:15:04.063Z,98521.45
2019-04-04T21:19:08.249Z,98525.57
2019-04-04T21:23:12.482Z,98516.09
2019-04-04T21:27:18.762Z,98523.56
2019-04-04T21:31:22.639Z,98528.39
2019-04-04T21:35:26.868Z,98527.75
2019-04-04T21:39:31.244Z,98526.33
2019-04-04T21:43:35.473Z,98519.03
2019-04-04T21:47:39.679Z,98524.83
2019-04-04T21:51:43.921Z,98534.80
2019-04-04T21:55:48.114Z,98534.17
2019-04-04T21:59:52.341Z,98541.42
2019-04-04T22:03:56.571Z,98545.22
2019-04-04T22:08:00.853Z,98544.95
2019-04-04T22:12:05.100Z,98547.27
2019-04-04T22:16:09.479Z,98537.81
2019-04-04T22:20:14.261Z,98546.38
2019-04-04T22:24:18.483Z,98547.38
2019-04-04T22:28:22.716Z,98540.17
2019-04-04T22:32:26.957Z,98540.37
2019-04-04T22:36:31.214Z,98541.03
2019-04-04T22:40:35.745Z,98544.34
2019-04-04T22:44:39.950Z,98548.44
2019-04-04T22:48:44.178Z,98555.95
2019-04-04T22:52:48.935Z,98562.58
2019-04-04T22:56:53.160Z,98574.20
2019-04-04T23:00:57.391Z,98574.39
2019-04-04T23:05:01.565Z,98575.80
2019-04-04T23:09:08.002Z,98581.22
2019-04-04T23:13:12.224Z,98579.98
2019-04-04T23:17:16.471Z,98577.48
2019-04-04T23:21:20.696Z,98570.19
2019-04-04T23:25:24.922Z,98580.00
2019-04-04T23:29:29.150Z,98576.45
2019-04-04T23:33:33.505Z,98586.62
2019-04-04T23:37:37.705Z,98578.38
2019-04-04T23:41:41.941Z,98575.91
2019-04-04T23:45:46.194Z,98577.02
2019-04-04T23:49:50.444Z,98576.28
2019-04-04T23:53:54.714Z,98577.30
2019-04-04T23:57:58.923Z,98570.73
